createdAt,value
2022-08-09T03:47:08.014Z,21.10
2022-08-09T03:49:36.411Z,21.10
2022-08-09T03:52:04.371Z,21.10
2022-08-09T03:54:32.790Z,21.10
2022-08-09T03:57:04.451Z,21.10
2022-08-09T03:59:53.230Z,21.10
2022-08-09T04:02:26.901Z,21.10
2022-08-09T04:04:58.894Z,21.10
2022-08-09T04:07:33.939Z,21.10
2022-08-09T04:10:15.034Z,21.10
2022-08-09T04:12:51.511Z,21.10
2022-08-09T04:15:42.807Z,21.10
2022-08-09T04:18:07.333Z,21.00
2022-08-09T04:20:34.519Z,20.90
2022-08-09T04:23:01.932Z,21.00
2022-08-09T04:25:29.286Z,21.00
2022-08-09T04:27:59.933Z,21.00
2022-08-09T04:30:31.637Z,21.10
2022-08-09T04:33:00.277Z,21.00
2022-08-09T04:35:29.289Z,21.00
2022-08-09T04:37:59.850Z,21.00
2022-08-09T04:40:48.174Z,21.00
2022-08-09T04:43:21.354Z,21.00
2022-08-09T04:45:53.118Z,21.00
2022-08-09T04:48:21.585Z,21.00
2022-08-09T04:50:50.956Z,21.00
2022-08-09T04:53:17.958Z,21.00
2022-08-09T04:55:58.742Z,21.00
2022-08-09T04:58:27.204Z,20.90
2022-08-09T05:00:55.250Z,21.00
2022-08-09T05:03:40.107Z,21.00
2022-08-09T05:06:11.303Z,21.00
2022-08-09T05:08:38.523Z,21.00
2022-08-09T05:11:06.926Z,21.10
2022-08-09T05:13:38.639Z,21.10
2022-08-09T05:16:10.164Z,21.20
2022-08-09T05:18:55.493Z,21.20
2022-08-09T05:21:30.054Z,21.30
2022-08-09T05:24:01.878Z,21.40
2022-08-09T05:26:45.719Z,21.40
2022-08-09T05:29:22.055Z,21.50
2022-08-09T05:31:56.636Z,21.60
2022-08-09T05:34:30.001Z,21.60
2022-08-09T05:37:06.250Z,21.70
2022-08-09T05:39:36.229Z,21.80
2022-08-09T05:42:17.661Z,22.00
2022-08-09T05:44:50.830Z,21.90
2022-08-09T05:47:19.084Z,21.90
2022-08-09T05:50:26.004Z,22.00
2022-08-09T05:52:33.197Z,22.00
2022-08-09T05:55:02.985Z,22.10
2022-08-09T05:57:50.971Z,22.20
2022-08-09T06:00:22.100Z,22.20
2022-08-09T06:02:49.372Z,22.30
2022-08-09T06:05:30.579Z,22.30
2022-08-09T06:08:09.292Z,22.40
2022-08-09T06:10:38.462Z,22.40
2022-08-09T06:13:12.055Z,22.40
2022-08-09T06:15:46.809Z,22.50
2022-08-09T06:18:15.835Z,22.60
2022-08-09T06:20:54.404Z,22.60
2022-08-09T06:23:24.256Z,22.70
2022-08-09T06:26:11.174Z,22.70
2022-08-09T06:28:38.301Z,22.70
2022-08-09T06:31:05.527Z,22.80
2022-08-09T06:33:41.694Z,22.80
2022-08-09T06:36:09.520Z,22.80
2022-08-09T06:38:43.931Z,22.90
2022-08-09T06:41:19.092Z,22.90
2022-08-09T06:43:48.031Z,22.90
2022-08-09T06:46:39.621Z,22.90
2022-08-09T06:49:02.609Z,22.90
2022-08-09T06:51:29.638Z,22.90
2022-08-09T06:54:00.655Z,22.90
2022-08-09T06:56:31.074Z,23.00
2022-08-09T07:00:48.872Z,23.00
2022-08-09T07:01:57.926Z,23.00
2022-08-09T07:04:27.135Z,22.90
2022-08-09T07:07:00.412Z,22.90
2022-08-09T07:09:54.901Z,23.00
2022-08-09T07:12:17.885Z,23.00
2022-08-09T07:14:46.048Z,23.10
2022-08-09T07:17:18.448Z,23.10
2022-08-09T07:19:48.237Z,23.20
2022-08-09T07:22:18.237Z,23.20
2022-08-09T07:24:49.289Z,23.20
2022-08-09T07:27:26.805Z,23.20
2022-08-09T07:30:01.686Z,23.30
2022-08-09T07:32:32.038Z,23.30
2022-08-09T07:35:10.376Z,23.40
2022-08-09T07:37:40.542Z,23.40
2022-08-09T07:40:13.490Z,23.40
2022-08-09T07:42:52.557Z,23.50
2022-08-09T07:45:38.195Z,23.60
2022-08-09T07:48:07.444Z,23.60
2022-08-09T07:50:52.744Z,23.70
2022-08-09T07:53:36.537Z,23.70
2022-08-09T07:56:07.443Z,23.80
2022-08-09T07:58:54.418Z,23.90
2022-08-09T08:01:21.538Z,23.90
2022-08-09T08:04:00.577Z,24.00
2022-08-09T08:06:32.223Z,24.00
2022-08-09T08:09:04.905Z,24.10
2022-08-09T08:12:12.092Z,24.10
2022-08-09T08:14:21.061Z,24.20
2022-08-09T08:17:00.996Z,24.20
2022-08-09T08:19:35.220Z,24.20
2022-08-09T08:22:02.574Z,24.20
2022-08-09T08:24:35.342Z,24.20
2022-08-09T08:27:17.297Z,24.20
2022-08-09T08:29:50.169Z,24.30
2022-08-09T08:32:34.606Z,24.40
2022-08-09T08:35:07.668Z,24.40
2022-08-09T08:37:41.645Z,24.50
2022-08-09T08:40:23.011Z,24.40
2022-08-09T08:42:53.292Z,24.40
2022-08-09T08:45:36.774Z,24.40
2022-08-09T08:48:05.521Z,24.30
2022-08-09T08:50:33.042Z,24.30
2022-08-09T08:53:02.326Z,24.40
2022-08-09T08:55:32.221Z,24.50
2022-08-09T08:57:59.721Z,24.50
2022-08-09T09:00:29.805Z,24.60
2022-08-09T09:03:08.327Z,24.70
2022-08-09T09:05:58.915Z,24.70
2022-08-09T09:08:30.991Z,24.70
2022-08-09T09:11:03.894Z,24.70
2022-08-09T09:13:55.304Z,24.80
2022-08-09T09:16:30.887Z,24.80
2022-08-09T09:19:29.172Z,24.90
2022-08-09T09:22:07.729Z,24.90
2022-08-09T09:24:38.195Z,25.00
2022-08-09T09:27:07.714Z,25.00
2022-08-09T09:29:58.102Z,25.10
2022-08-09T09:32:32.217Z,25.10
2022-08-09T09:35:09.123Z,25.10
2022-08-09T09:37:37.750Z,25.20
2022-08-09T09:40:08.638Z,25.10
2022-08-09T09:42:36.280Z,25.10
2022-08-09T09:45:08.283Z,25.10
2022-08-09T09:47:47.759Z,25.30
2022-08-09T09:50:23.089Z,25.40
2022-08-09T09:52:56.308Z,25.50
2022-08-09T09:55:32.024Z,25.60
2022-08-09T09:58:18.124Z,25.50
2022-08-09T10:00:52.717Z,25.40
2022-08-09T10:03:42.678Z,25.50
2022-08-09T10:06:11.747Z,25.50
2022-08-09T10:08:54.225Z,25.60
2022-08-09T10:12:00.194Z,25.60
2022-08-09T10:14:27.489Z,25.60
2022-08-09T10:17:11.235Z,25.70
2022-08-09T10:19:46.302Z,25.70
2022-08-09T10:22:13.311Z,25.80
2022-08-09T10:24:40.579Z,26.00
2022-08-09T10:27:17.018Z,25.90
2022-08-09T10:30:56.753Z,25.90
2022-08-09T10:32:42.328Z,26.00
2022-08-09T10:35:10.526Z,26.10
2022-08-09T10:37:40.322Z,26.10
2022-08-09T10:40:11.935Z,26.10
2022-08-09T10:42:56.527Z,26.10
2022-08-09T10:45:24.213Z,26.10
2022-08-09T10:48:19.483Z,26.10
2022-08-09T10:51:06.256Z,26.20
2022-08-09T10:53:54.223Z,26.30
2022-08-09T10:56:24.006Z,26.20
2022-08-09T10:58:54.037Z,26.20
2022-08-09T11:03:17.933Z,26.20
2022-08-09T11:04:29.953Z,26.10
2022-08-09T11:06:59.707Z,26.20
2022-08-09T11:09:41.362Z,26.20
2022-08-09T11:12:17.196Z,26.30
2022-08-09T11:14:48.940Z,26.40
2022-08-09T11:17:15.943Z,26.60
2022-08-09T11:20:11.819Z,26.70
2022-08-09T11:22:45.206Z,26.70
2022-08-09T11:25:26.014Z,26.60
2022-08-09T11:28:27.800Z,26.60
2022-08-09T11:31:02.407Z,26.60
2022-08-09T11:33:45.509Z,26.70
2022-08-09T11:36:35.575Z,26.70
2022-08-09T11:39:03.737Z,26.70
2022-08-09T11:41:37.662Z,26.70
2022-08-09T11:44:07.581Z,26.70
2022-08-09T11:46:52.877Z,26.70
2022-08-09T11:49:28.261Z,26.80
2022-08-09T11:53:04.112Z,26.90
2022-08-09T11:55:14.407Z,26.90
2022-08-09T11:58:00.345Z,27.00
2022-08-09T12:00:31.793Z,27.00
2022-08-09T12:03:00.285Z,27.00
2022-08-09T12:05:47.905Z,27.00
2022-08-09T12:08:21.643Z,27.00
2022-08-09T12:10:48.967Z,27.00
2022-08-09T12:14:09.052Z,27.00
2022-08-09T12:16:37.578Z,27.10
2022-08-09T12:19:06.493Z,27.10
2022-08-09T12:21:38.951Z,27.20
2022-08-09T12:24:09.567Z,27.10
2022-08-09T12:29:00.061Z,27.10
2022-08-09T12:29:52.267Z,27.10
2022-08-09T12:32:27.199Z,27.00
2022-08-09T12:34:59.817Z,27.10
2022-08-09T12:37:31.301Z,27.10
2022-08-09T12:40:05.628Z,27.10
2022-08-09T12:42:33.233Z,27.10
2022-08-09T12:45:00.843Z,27.00
2022-08-09T12:47:37.083Z,27.10
2022-08-09T12:50:19.705Z,27.20
2022-08-09T12:53:02.641Z,27.20
2022-08-09T12:56:14.815Z,27.30
2022-08-09T12:58:24.188Z,27.40
2022-08-09T13:00:54.837Z,27.50
2022-08-09T13:03:53.043Z,27.60
2022-08-09T13:06:48.227Z,27.60
2022-08-09T13:09:22.914Z,27.60
2022-08-09T13:11:52.598Z,27.60
2022-08-09T13:14:42.859Z,27.60
2022-08-09T13:17:15.981Z,27.60
2022-08-09T13:20:07.706Z,27.60
2022-08-09T13:23:01.604Z,27.70
2022-08-09T13:25:20.096Z,27.70
2022-08-09T13:27:55.619Z,27.70
2022-08-09T13:30:50.064Z,27.70
2022-08-09T13:33:17.131Z,27.70
2022-08-09T13:36:24.162Z,27.70
2022-08-09T13:38:57.486Z,27.70
2022-08-09T13:41:58.409Z,27.80
2022-08-09T13:44:16.326Z,27.80
2022-08-09T13:47:27.405Z,27.80
2022-08-09T13:49:37.880Z,27.90
2022-08-09T13:52:09.099Z,27.90
2022-08-09T13:54:41.901Z,27.90
2022-08-09T13:57:14.462Z,27.90
2022-08-09T13:59:58.277Z,27.90
2022-08-09T14:02:26.253Z,27.90
2022-08-09T14:04:59.750Z,27.90
2022-08-09T14:07:30.266Z,28.00
2022-08-09T14:10:08.993Z,28.00
2022-08-09T14:12:44.706Z,27.90
2022-08-09T14:16:06.919Z,27.90
2022-08-09T14:18:16.681Z,28.00
2022-08-09T14:20:46.576Z,28.10
2022-08-09T14:23:20.243Z,28.20
2022-08-09T14:26:05.930Z,28.20
2022-08-09T14:28:33.774Z,28.20
2022-08-09T14:31:00.868Z,28.20
2022-08-09T14:33:28.054Z,28.20
2022-08-09T14:35:56.219Z,28.10
2022-08-09T14:38:23.315Z,28.00
2022-08-09T14:41:02.136Z,28.00
2022-08-09T14:43:47.676Z,28.10
2022-08-09T14:46:54.858Z,28.20
2022-08-09T14:49:05.490Z,28.10
2022-08-09T14:51:42.368Z,28.20
2022-08-09T14:54:09.870Z,28.10
2022-08-09T14:56:57.381Z,28.20
2022-08-09T14:59:23.946Z,28.20
2022-08-09T15:01:50.924Z,28.10
2022-08-09T15:04:18.706Z,28.10
2022-08-09T15:06:49.356Z,28.00
2022-08-09T15:09:16.868Z,28.00
2022-08-09T15:12:04.592Z,28.10
2022-08-09T15:14:38.586Z,28.10
2022-08-09T15:17:09.720Z,28.20
2022-08-09T15:19:37.127Z,28.20
2022-08-09T15:22:25.894Z,28.30
2022-08-09T15:24:53.853Z,28.20
2022-08-09T15:27:21.521Z,28.20
2022-08-09T15:30:58.542Z,28.20
2022-08-09T15:32:36.438Z,28.20
2022-08-09T15:35:40.150Z,28.20
2022-08-09T15:37:57.294Z,28.30
2022-08-09T15:40:43.786Z,28.30
2022-08-09T15:43:13.656Z,28.30
2022-08-09T15:45:51.916Z,28.30
2022-08-09T15:48:30.809Z,28.20
2022-08-09T15:50:59.543Z,28.20
2022-08-09T15:54:03.416Z,28.20
2022-08-09T15:56:28.934Z,28.20
2022-08-09T15:58:58.174Z,28.20
2022-08-09T16:01:25.353Z,28.20
2022-08-09T16:03:52.657Z,28.30
2022-08-09T16:06:34.893Z,28.20
2022-08-09T16:09:05.207Z,28.20
2022-08-09T16:11:33.070Z,28.20
2022-08-09T16:14:06.826Z,28.20
2022-08-09T16:16:37.242Z,28.20
2022-08-09T16:19:05.698Z,28.30
2022-08-09T16:21:35.195Z,28.30
2022-08-09T16:24:04.888Z,28.40
2022-08-09T16:26:35.216Z,28.40
2022-08-09T16:29:11.055Z,28.50
2022-08-09T16:32:18.258Z,28.50
2022-08-09T16:34:44.817Z,28.50
2022-08-09T16:37:17.917Z,28.60
2022-08-09T16:39:54.762Z,28.70
2022-08-09T16:42:32.765Z,28.80
2022-08-09T16:44:59.754Z,29.60
2022-08-09T16:48:42.503Z,30.40
2022-08-09T16:50:32.530Z,30.00
2022-08-09T16:53:01.831Z,29.80
2022-08-09T16:55:31.516Z,29.90
2022-08-09T16:58:16.918Z,32.00
2022-08-09T17:00:46.703Z,35.30
2022-08-09T17:03:21.370Z,36.50
2022-08-09T17:06:08.231Z,35.00
2022-08-09T17:09:01.748Z,33.30
2022-08-09T17:11:40.133Z,31.90
2022-08-09T17:14:26.214Z,31.10
2022-08-09T17:16:59.954Z,30.50
2022-08-09T17:20:05.030Z,30.20
2022-08-09T17:22:16.022Z,30.00
2022-08-09T17:24:54.826Z,29.80
2022-08-09T17:27:22.848Z,29.80
2022-08-09T17:29:51.123Z,29.70
2022-08-09T17:32:20.393Z,29.80
2022-08-09T17:35:03.955Z,29.70
2022-08-09T17:38:11.869Z,29.60
2022-08-09T17:40:26.937Z,29.50
2022-08-09T17:42:59.564Z,29.30
2022-08-09T17:46:03.800Z,29.30
2022-08-09T17:48:28.532Z,29.20
2022-08-09T17:51:01.710Z,29.30
2022-08-09T17:53:43.222Z,29.30
2022-08-09T17:56:15.030Z,29.30
2022-08-09T17:58:45.673Z,29.30
2022-08-09T18:01:22.108Z,29.30
2022-08-09T18:03:49.361Z,29.20
2022-08-09T18:06:30.987Z,29.20
2022-08-09T18:09:04.384Z,29.20
2022-08-09T18:12:05.655Z,29.20
2022-08-09T18:14:21.405Z,29.10
2022-08-09T18:16:49.585Z,29.10
2022-08-09T18:20:56.210Z,29.10
2022-08-09T18:22:04.298Z,29.10
2022-08-09T18:24:31.323Z,29.10
2022-08-09T18:27:01.365Z,29.00
2022-08-09T18:30:40.181Z,28.90
2022-08-09T18:32:18.831Z,28.90
2022-08-09T18:34:56.101Z,28.80
2022-08-09T18:37:47.657Z,28.70
2022-08-09T18:40:11.485Z,28.60
2022-08-09T18:42:39.598Z,28.60
2022-08-09T18:45:11.110Z,28.50
2022-08-09T18:47:58.528Z,28.50
2022-08-09T18:50:25.734Z,28.40
2022-08-09T18:53:00.730Z,28.30
2022-08-09T18:55:45.706Z,28.20
2022-08-09T18:58:19.900Z,28.10
2022-08-09T19:00:59.507Z,28.10
2022-08-09T19:03:28.730Z,28.00
2022-08-09T19:06:03.456Z,27.80
2022-08-09T19:08:31.314Z,27.80
2022-08-09T19:10:58.797Z,27.70
2022-08-09T19:13:38.272Z,27.60
2022-08-09T19:16:13.256Z,27.60
2022-08-09T19:18:45.790Z,27.50
2022-08-09T19:21:12.867Z,27.40
2022-08-09T19:24:39.577Z,27.30
2022-08-09T19:26:32.611Z,27.20
2022-08-09T19:29:15.547Z,27.20
2022-08-09T19:31:51.106Z,27.10
2022-08-09T19:34:23.191Z,27.10
2022-08-09T19:36:52.238Z,27.00
2022-08-09T19:39:20.506Z,26.90
2022-08-09T19:41:56.780Z,26.90
2022-08-09T19:44:24.064Z,26.90
2022-08-09T19:46:53.754Z,26.80
2022-08-09T19:50:05.344Z,26.70
2022-08-09T19:52:09.933Z,26.60
2022-08-09T19:54:39.815Z,26.60
2022-08-09T19:57:08.418Z,26.50
2022-08-09T19:59:59.693Z,26.50
2022-08-09T20:04:24.030Z,26.40
2022-08-09T20:05:14.716Z,26.30
2022-08-09T20:07:59.445Z,26.30
2022-08-09T20:10:34.328Z,26.30
2022-08-09T20:13:02.907Z,26.30
2022-08-09T20:16:36.920Z,26.30
2022-08-09T20:18:20.218Z,26.30
2022-08-09T20:20:51.271Z,26.10
2022-08-09T20:23:23.594Z,26.00
2022-08-09T20:25:53.325Z,26.00
2022-08-09T20:28:24.536Z,26.00
2022-08-09T20:30:55.292Z,26.00
2022-08-09T20:33:22.378Z,26.00
2022-08-09T20:35:50.696Z,25.90
2022-08-09T20:38:33.975Z,25.90
2022-08-09T20:41:06.038Z,25.80
2022-08-09T20:43:33.143Z,25.70
2022-08-09T20:46:33.221Z,25.70
2022-08-09T20:48:49.484Z,25.70
2022-08-09T20:51:22.020Z,25.70
2022-08-09T20:53:51.185Z,25.60
2022-08-09T20:56:21.795Z,25.50
2022-08-09T20:58:50.144Z,25.50
2022-08-09T21:01:34.175Z,25.50
2022-08-09T21:04:08.232Z,25.50
2022-08-09T21:06:51.717Z,25.50
2022-08-09T21:09:24.954Z,25.50
2022-08-09T21:14:40.646Z,25.50
2022-08-09T21:18:22.168Z,25.40
2022-08-09T21:20:18.201Z,25.30
2022-08-09T21:22:46.867Z,25.30
2022-08-09T21:25:38.554Z,25.30
2022-08-09T21:28:07.556Z,25.30
2022-08-09T21:30:40.417Z,25.30
2022-08-09T21:33:08.237Z,25.30
2022-08-09T21:35:40.949Z,25.30
2022-08-09T21:38:18.474Z,25.20
2022-08-09T21:40:58.561Z,25.20
2022-08-09T21:43:55.973Z,25.20
2022-08-09T21:46:13.670Z,25.10
2022-08-09T21:48:42.824Z,25.10
2022-08-09T21:51:24.231Z,25.10
2022-08-09T21:54:03.120Z,24.90
2022-08-09T21:56:42.921Z,24.90
2022-08-09T21:59:11.897Z,24.90
2022-08-09T22:02:01.321Z,24.90
2022-08-09T22:04:55.694Z,24.70
2022-08-09T22:07:35.464Z,24.70
2022-08-09T22:10:04.634Z,24.70
2022-08-09T22:12:32.003Z,24.70
2022-08-09T22:14:59.198Z,24.60
2022-08-09T22:17:28.064Z,24.60
2022-08-09T22:20:00.699Z,24.50
2022-08-09T22:22:28.428Z,24.50
2022-08-09T22:26:05.336Z,24.40
2022-08-09T22:27:42.501Z,24.40
2022-08-09T22:30:10.009Z,24.30
2022-08-09T22:32:37.621Z,24.30
2022-08-09T22:35:06.615Z,24.30
2022-08-09T22:38:06.598Z,24.30
2022-08-09T22:40:35.345Z,24.30
2022-08-09T22:43:08.479Z,24.30
2022-08-09T22:48:11.474Z,24.20
2022-08-09T22:48:35.865Z,24.20
2022-08-09T22:51:10.882Z,24.10
2022-08-09T22:54:02.044Z,24.00
2022-08-09T22:56:34.032Z,24.00
2022-08-09T22:59:05.689Z,24.00
